createdAt,value
2019-03-24T00:00:08.837Z,1.00
2019-03-24T00:02:37.627Z,1.00
2019-03-24T00:05:06.456Z,1.00
2019-03-24T00:07:35.103Z,1.00
2019-03-24T00:10:05.369Z,1.00
2019-03-24T00:12:34.832Z,1.00
2019-03-24T00:15:05.943Z,1.00
2019-03-24T00:17:35.526Z,1.00
2019-03-24T00:20:05.599Z,1.00
2019-03-24T00:22:35.154Z,1.00
2019-03-24T00:25:04.941Z,1.00
2019-03-24T00:27:34.216Z,1.00
2019-03-24T00:30:03.285Z,1.00
2019-03-24T00:32:32.736Z,1.00
2019-03-24T00:35:02.057Z,1.00
2019-03-24T00:37:35.764Z,1.00
2019-03-24T00:40:08.413Z,1.00
2019-03-24T00:42:37.051Z,1.00
2019-03-24T00:45:09.622Z,1.00
2019-03-24T00:47:38.268Z,1.00
2019-03-24T00:50:07.111Z,1.00
2019-03-24T00:52:35.882Z,1.00
2019-03-24T00:55:06.326Z,1.00
2019-03-24T00:57:37.489Z,1.00
2019-03-24T01:00:10.615Z,1.00
2019-03-24T01:02:39.349Z,1.00
2019-03-24T01:05:09.130Z,1.00
2019-03-24T01:07:37.930Z,1.00
2019-03-24T01:10:10.651Z,1.00
2019-03-24T01:12:40.129Z,1.00
2019-03-24T01:15:09.225Z,1.00
2019-03-24T01:17:38.751Z,1.00
2019-03-24T01:20:08.182Z,1.00
2019-03-24T01:22:37.094Z,1.00
2019-03-24T01:25:07.596Z,1.00
2019-03-24T01:27:36.231Z,1.00
2019-03-24T01:30:07.313Z,1.00
2019-03-24T01:32:36.092Z,1.00
2019-03-24T01:35:05.933Z,1.00
2019-03-24T01:37:34.599Z,1.00
2019-03-24T01:40:03.340Z,1.00
2019-03-24T01:42:32.227Z,1.00
2019-03-24T01:45:00.999Z,1.00
2019-03-24T01:47:29.662Z,1.00
2019-03-24T01:49:59.037Z,1.00
2019-03-24T01:52:28.160Z,1.00
2019-03-24T01:54:57.374Z,1.00
2019-03-24T01:57:26.521Z,1.00
2019-03-24T01:59:56.081Z,1.00
2019-03-24T02:02:25.933Z,1.00
2019-03-24T02:04:54.600Z,1.00
2019-03-24T02:07:23.296Z,1.00
2019-03-24T02:09:52.052Z,1.00
2019-03-24T02:12:20.694Z,1.00
2019-03-24T02:14:49.720Z,1.00
2019-03-24T02:17:18.355Z,1.00
2019-03-24T02:19:47.132Z,1.00
2019-03-24T02:22:16.199Z,1.00
2019-03-24T02:24:45.044Z,1.00
2019-03-24T02:27:13.852Z,1.00
2019-03-24T02:29:43.138Z,1.00
2019-03-24T02:32:12.179Z,1.00
2019-03-24T02:34:40.853Z,1.00
2019-03-24T02:37:09.538Z,1.00
2019-03-24T02:39:38.647Z,1.00
2019-03-24T02:42:08.342Z,1.00
2019-03-24T02:44:38.007Z,1.00
2019-03-24T02:47:06.845Z,1.00
2019-03-24T02:49:36.208Z,1.00
2019-03-24T02:52:05.324Z,1.00
2019-03-24T02:54:34.749Z,1.00
2019-03-24T02:57:03.446Z,1.00
2019-03-24T02:59:32.070Z,1.00
2019-03-24T03:02:01.224Z,1.00
2019-03-24T03:04:30.064Z,1.00
2019-03-24T03:06:58.730Z,1.00
2019-03-24T03:09:28.055Z,1.00
2019-03-24T03:11:57.147Z,1.00
2019-03-24T03:14:26.398Z,1.00
2019-03-24T03:16:55.916Z,1.00
2019-03-24T03:19:25.097Z,1.00
2019-03-24T03:21:55.514Z,1.30
2019-03-24T03:24:25.124Z,1.70
2019-03-24T03:26:54.316Z,2.40
2019-03-24T03:29:23.529Z,2.20
2019-03-24T03:31:52.477Z,3.10
2019-03-24T03:34:22.039Z,3.10
2019-03-24T03:36:51.365Z,3.70
2019-03-24T03:39:20.291Z,4.60
2019-03-24T03:41:49.132Z,4.60
2019-03-24T03:44:18.414Z,5.50
2019-03-24T03:46:53.022Z,6.00
2019-03-24T03:49:19.312Z,6.20
2019-03-24T03:51:48.774Z,6.80
2019-03-24T03:54:18.533Z,7.20
2019-03-24T03:56:47.804Z,7.40
2019-03-24T03:59:16.806Z,8.50
2019-03-24T04:01:45.898Z,9.30
2019-03-24T04:04:15.340Z,9.60
2019-03-24T04:06:44.782Z,8.50
2019-03-24T04:09:13.913Z,9.10
2019-03-24T04:11:43.109Z,10.80
2019-03-24T04:14:12.394Z,10.50
2019-03-24T04:16:41.534Z,11.40
2019-03-24T04:19:13.036Z,11.80
2019-03-24T04:21:41.837Z,12.20
2019-03-24T04:24:11.445Z,12.80
2019-03-24T04:26:40.237Z,12.70
2019-03-24T04:29:09.111Z,14.10
2019-03-24T04:31:37.835Z,13.60
2019-03-24T04:34:07.779Z,14.80
2019-03-24T04:36:37.344Z,15.30
2019-03-24T04:39:06.842Z,16.60
2019-03-24T04:41:35.474Z,15.20
2019-03-24T04:44:04.909Z,14.60
2019-03-24T04:46:34.481Z,15.50
2019-03-24T04:49:04.768Z,15.90
2019-03-24T04:51:33.574Z,18.80
2019-03-24T04:54:02.381Z,15.80
2019-03-24T04:56:31.114Z,17.50
2019-03-24T04:59:00.303Z,17.90
2019-03-24T05:01:29.515Z,17.70
2019-03-24T05:04:00.525Z,17.20
2019-03-24T05:06:29.705Z,16.60
2019-03-24T05:08:59.222Z,16.20
2019-03-24T05:11:28.117Z,15.80
2019-03-24T05:13:57.109Z,16.00
2019-03-24T05:16:25.883Z,15.30
2019-03-24T05:18:54.534Z,15.20
2019-03-24T05:21:24.571Z,15.80
2019-03-24T05:23:53.851Z,16.20
2019-03-24T05:26:23.613Z,15.40
2019-03-24T05:28:53.252Z,16.00
2019-03-24T05:31:22.810Z,16.50
2019-03-24T05:33:51.963Z,17.00
2019-03-24T05:36:20.864Z,16.40
2019-03-24T05:38:49.920Z,15.30
2019-03-24T05:41:19.382Z,16.00
2019-03-24T05:43:48.018Z,16.50
2019-03-24T05:46:17.150Z,17.20
2019-03-24T05:48:46.724Z,19.00
2019-03-24T05:51:16.091Z,16.50
2019-03-24T05:53:44.843Z,16.50
2019-03-24T05:56:13.629Z,15.70
2019-03-24T05:58:42.307Z,15.50
2019-03-24T06:01:10.964Z,16.50
2019-03-24T06:03:39.617Z,18.70
2019-03-24T06:06:09.186Z,17.30
2019-03-24T06:08:37.955Z,17.60
2019-03-24T06:11:06.799Z,16.40
2019-03-24T06:13:36.030Z,16.80
2019-03-24T06:16:05.479Z,15.90
2019-03-24T06:18:35.166Z,17.30
2019-03-24T06:21:04.747Z,17.50
2019-03-24T06:23:33.843Z,18.40
2019-03-24T06:26:03.207Z,18.00
2019-03-24T06:28:32.814Z,18.30
2019-03-24T06:31:02.108Z,20.00
2019-03-24T06:33:31.937Z,18.60
2019-03-24T06:36:00.649Z,18.00
2019-03-24T06:38:29.264Z,18.60
2019-03-24T06:40:57.828Z,18.30
2019-03-24T06:43:26.748Z,18.60
2019-03-24T06:45:55.582Z,19.10
2019-03-24T06:48:25.510Z,20.20
2019-03-24T06:50:55.866Z,20.30
2019-03-24T06:53:25.546Z,21.10
2019-03-24T06:55:54.843Z,22.90
2019-03-24T06:58:24.395Z,23.00
2019-03-24T07:00:54.355Z,22.30
2019-03-24T07:03:28.115Z,23.90
2019-03-24T07:05:57.430Z,23.70
2019-03-24T07:08:26.664Z,22.80
2019-03-24T07:10:55.993Z,23.00
2019-03-24T07:13:25.719Z,23.20
2019-03-24T07:15:54.515Z,26.10
2019-03-24T07:18:23.135Z,24.40
2019-03-24T07:20:52.608Z,22.90
2019-03-24T07:23:25.018Z,23.50
2019-03-24T07:25:54.018Z,23.10
2019-03-24T07:28:24.824Z,22.70
2019-03-24T07:30:53.624Z,23.90
2019-03-24T07:33:22.730Z,25.10
2019-03-24T07:35:52.084Z,27.30
2019-03-24T07:38:21.366Z,26.10
2019-03-24T07:40:50.646Z,25.60
2019-03-24T07:43:19.848Z,25.90
2019-03-24T07:45:49.025Z,25.60
2019-03-24T07:48:19.244Z,26.30
2019-03-24T07:50:48.663Z,26.10
2019-03-24T07:53:18.033Z,25.50
2019-03-24T07:55:47.246Z,25.90
2019-03-24T07:58:16.564Z,25.90
2019-03-24T08:00:45.706Z,25.70
2019-03-24T08:03:14.796Z,26.70
2019-03-24T08:05:43.867Z,26.80
2019-03-24T08:08:12.627Z,26.40
2019-03-24T08:10:41.291Z,26.60
2019-03-24T08:13:09.961Z,26.70
2019-03-24T08:15:39.381Z,26.80
2019-03-24T08:18:08.292Z,27.30
2019-03-24T08:20:37.618Z,26.40
2019-03-24T08:23:07.074Z,26.20
2019-03-24T08:25:36.454Z,26.30
2019-03-24T08:28:05.795Z,26.10
2019-03-24T08:30:35.877Z,27.20
2019-03-24T08:33:05.634Z,26.70
2019-03-24T08:35:34.929Z,26.60
2019-03-24T08:38:04.195Z,26.20
2019-03-24T08:40:33.412Z,26.60
2019-03-24T08:43:02.934Z,27.00
2019-03-24T08:45:32.399Z,27.20
2019-03-24T08:48:01.819Z,26.60
2019-03-24T08:50:30.591Z,27.50
2019-03-24T08:52:59.239Z,27.60
2019-03-24T08:55:28.507Z,27.70
2019-03-24T08:57:57.361Z,28.20
2019-03-24T09:00:30.849Z,28.10
2019-03-24T09:02:57.195Z,27.80
2019-03-24T09:05:26.505Z,28.10
2019-03-24T09:07:55.699Z,27.50
2019-03-24T09:10:25.010Z,27.40
2019-03-24T09:12:54.547Z,28.00
2019-03-24T09:15:23.953Z,28.20
2019-03-24T09:17:52.968Z,28.80
2019-03-24T09:20:23.148Z,28.40
2019-03-24T09:22:52.516Z,28.00
2019-03-24T09:25:21.816Z,27.80
2019-03-24T09:27:51.335Z,28.00
2019-03-24T09:30:28.460Z,27.40
2019-03-24T09:32:58.069Z,27.80
2019-03-24T09:35:26.745Z,27.40
2019-03-24T09:37:55.496Z,27.30
2019-03-24T09:40:28.944Z,27.80
2019-03-24T09:42:59.417Z,27.80
2019-03-24T09:45:28.970Z,28.00
2019-03-24T09:47:58.402Z,28.00
2019-03-24T09:50:27.709Z,28.00
2019-03-24T09:52:56.894Z,27.70
2019-03-24T09:55:26.107Z,27.90
2019-03-24T09:57:56.917Z,27.50
2019-03-24T10:00:26.128Z,27.40
2019-03-24T10:02:55.337Z,28.40
2019-03-24T10:05:24.605Z,28.10
2019-03-24T10:07:53.830Z,28.60
2019-03-24T10:10:23.157Z,28.30
2019-03-24T10:12:52.430Z,28.30
2019-03-24T10:15:21.804Z,28.90
2019-03-24T10:17:50.464Z,30.30
2019-03-24T10:20:19.499Z,31.10
2019-03-24T10:22:48.262Z,31.80
2019-03-24T10:25:18.001Z,33.60
2019-03-24T10:27:46.669Z,36.20
2019-03-24T10:30:16.366Z,36.90
2019-03-24T10:32:45.493Z,36.90
2019-03-24T10:35:14.717Z,37.70
2019-03-24T10:37:44.090Z,38.40
2019-03-24T10:40:13.148Z,39.80
2019-03-24T10:42:42.259Z,40.60
2019-03-24T10:45:11.639Z,41.50
2019-03-24T10:47:41.984Z,42.60
2019-03-24T10:50:11.525Z,44.20
2019-03-24T10:52:40.835Z,44.20
2019-03-24T10:55:10.781Z,45.60
2019-03-24T10:57:41.934Z,45.80
2019-03-24T11:00:12.774Z,46.60
2019-03-24T11:02:42.339Z,46.90
2019-03-24T11:05:11.853Z,48.00
2019-03-24T11:07:41.555Z,48.20
2019-03-24T11:10:12.016Z,48.10
2019-03-24T11:12:41.186Z,49.20
2019-03-24T11:15:11.163Z,49.90
2019-03-24T11:17:40.354Z,51.30
2019-03-24T11:20:09.945Z,52.90
2019-03-24T11:22:39.305Z,53.00
2019-03-24T11:25:09.042Z,53.40
2019-03-24T11:27:38.385Z,53.60
2019-03-24T11:30:12.055Z,54.20
2019-03-24T11:32:41.899Z,54.50
2019-03-24T11:35:11.395Z,55.80
2019-03-24T11:37:42.183Z,57.10
2019-03-24T11:40:11.938Z,56.80
2019-03-24T11:42:41.114Z,57.20
2019-03-24T11:45:10.978Z,57.00
2019-03-24T11:47:39.737Z,57.40
2019-03-24T11:50:09.185Z,56.70
2019-03-24T11:52:37.956Z,56.90
2019-03-24T11:55:08.745Z,56.40
2019-03-24T11:57:37.835Z,56.50
2019-03-24T12:00:15.360Z,56.40
2019-03-24T12:02:44.972Z,56.50
2019-03-24T12:05:14.546Z,57.00
2019-03-24T12:07:44.091Z,56.80
2019-03-24T12:10:13.353Z,55.70
2019-03-24T12:12:43.471Z,55.60
2019-03-24T12:15:12.744Z,55.70
2019-03-24T12:17:41.951Z,57.00
2019-03-24T12:20:11.292Z,56.40
2019-03-24T12:22:40.701Z,56.20
2019-03-24T12:25:10.980Z,55.40
2019-03-24T12:27:39.988Z,54.70
2019-03-24T12:30:09.192Z,54.20
2019-03-24T12:32:37.955Z,54.70
2019-03-24T12:35:08.411Z,53.80
2019-03-24T12:37:37.290Z,55.10
2019-03-24T12:40:07.760Z,56.10
2019-03-24T12:42:37.244Z,56.30
2019-03-24T12:45:08.687Z,54.90
2019-03-24T12:47:37.782Z,54.40
2019-03-24T12:50:10.002Z,54.50
2019-03-24T12:52:39.487Z,54.30
2019-03-24T12:55:08.831Z,54.30
2019-03-24T12:57:38.126Z,54.10
2019-03-24T13:00:09.519Z,54.90
2019-03-24T13:02:38.974Z,55.30
2019-03-24T13:05:11.462Z,55.40
2019-03-24T13:07:40.699Z,55.50
2019-03-24T13:10:10.255Z,56.30
2019-03-24T13:12:39.027Z,56.80
2019-03-24T13:15:08.296Z,57.80
2019-03-24T13:17:37.167Z,57.20
2019-03-24T13:20:07.279Z,56.30
2019-03-24T13:22:36.450Z,55.60
2019-03-24T13:25:07.012Z,54.90
2019-03-24T13:27:36.312Z,54.30
2019-03-24T13:30:06.378Z,54.20
2019-03-24T13:32:35.491Z,53.20
2019-03-24T13:35:05.026Z,52.70
2019-03-24T13:37:35.091Z,52.80
2019-03-24T13:40:05.037Z,52.40
2019-03-24T13:42:34.468Z,51.40
2019-03-24T13:45:04.117Z,52.20
2019-03-24T13:47:33.577Z,52.80
2019-03-24T13:50:03.001Z,53.30
2019-03-24T13:52:32.376Z,53.10
2019-03-24T13:55:03.901Z,53.10
2019-03-24T13:57:33.150Z,52.70
2019-03-24T14:00:02.225Z,52.80
2019-03-24T14:02:30.988Z,53.00
2019-03-24T14:04:59.775Z,53.20
2019-03-24T14:07:28.432Z,52.60
2019-03-24T14:09:58.295Z,52.80
2019-03-24T14:12:27.429Z,52.90
2019-03-24T14:14:56.793Z,53.00
2019-03-24T14:17:26.221Z,53.40
2019-03-24T14:19:55.536Z,53.80
2019-03-24T14:22:24.802Z,54.50
2019-03-24T14:24:54.328Z,55.10
2019-03-24T14:27:24.015Z,55.80
2019-03-24T14:29:53.606Z,56.10
2019-03-24T14:32:22.897Z,56.20
2019-03-24T14:34:52.035Z,56.80
2019-03-24T14:37:21.412Z,56.80
2019-03-24T14:39:50.818Z,56.70
2019-03-24T14:42:20.329Z,57.20
2019-03-24T14:44:49.930Z,57.60
2019-03-24T14:47:18.497Z,58.00
2019-03-24T14:49:47.954Z,58.70
2019-03-24T14:52:16.697Z,59.30
2019-03-24T14:54:45.997Z,60.30
2019-03-24T14:57:15.237Z,60.60
2019-03-24T14:59:44.506Z,61.80
2019-03-24T15:02:13.880Z,62.30
2019-03-24T15:04:42.896Z,62.60
2019-03-24T15:07:13.142Z,62.80
2019-03-24T15:09:42.189Z,63.60
2019-03-24T15:12:11.322Z,65.20
2019-03-24T15:14:40.375Z,65.00
2019-03-24T15:17:10.094Z,67.00
2019-03-24T15:19:39.567Z,68.00
2019-03-24T15:22:08.823Z,69.40
2019-03-24T15:24:38.184Z,71.10
2019-03-24T15:27:07.084Z,69.90
2019-03-24T15:29:35.728Z,67.90
2019-03-24T15:32:04.487Z,62.80
2019-03-24T15:34:33.909Z,55.40
2019-03-24T15:37:03.059Z,48.60
2019-03-24T15:39:33.204Z,38.50
2019-03-24T15:42:02.688Z,32.90
2019-03-24T15:44:32.080Z,28.90
2019-03-24T15:47:01.441Z,24.50
2019-03-24T15:49:30.390Z,22.30
2019-03-24T15:51:59.596Z,20.00
2019-03-24T15:54:29.478Z,16.60
2019-03-24T15:56:58.979Z,13.50
2019-03-24T15:59:28.329Z,9.80
2019-03-24T16:01:57.458Z,4.10
2019-03-24T16:04:26.767Z,3.30
2019-03-24T16:06:56.357Z,1.60
2019-03-24T16:09:27.095Z,2.30
2019-03-24T16:11:55.854Z,1.00
2019-03-24T16:14:24.689Z,1.00
2019-03-24T16:16:53.259Z,1.00
2019-03-24T16:19:22.029Z,1.00
2019-03-24T16:21:51.339Z,1.00
2019-03-24T16:24:21.090Z,1.00
2019-03-24T16:26:50.415Z,1.00
2019-03-24T16:29:19.723Z,1.00
2019-03-24T16:31:48.859Z,1.00
2019-03-24T16:34:17.995Z,1.00
2019-03-24T16:36:47.275Z,1.00
2019-03-24T16:39:16.717Z,1.00
2019-03-24T16:41:46.025Z,1.00
2019-03-24T16:44:15.089Z,1.00
2019-03-24T16:46:44.583Z,1.00
2019-03-24T16:49:14.718Z,1.20
2019-03-24T16:51:44.322Z,1.00
2019-03-24T16:54:13.871Z,1.00
2019-03-24T16:56:42.532Z,1.00
2019-03-24T16:59:11.396Z,1.00
2019-03-24T17:01:40.158Z,1.00
2019-03-24T17:04:09.179Z,1.00
2019-03-24T17:06:37.814Z,1.00
2019-03-24T17:09:07.644Z,1.00
2019-03-24T17:11:37.205Z,1.00
2019-03-24T17:14:06.705Z,1.00
2019-03-24T17:16:36.221Z,1.00
2019-03-24T17:19:05.837Z,1.00
2019-03-24T17:21:35.178Z,1.00
2019-03-24T17:24:04.354Z,1.00
2019-03-24T17:26:34.342Z,1.00
2019-03-24T17:29:03.383Z,1.00
2019-03-24T17:31:32.455Z,1.00
2019-03-24T17:34:02.422Z,1.00
2019-03-24T17:36:31.669Z,1.00
2019-03-24T17:39:00.334Z,1.00
2019-03-24T17:41:29.825Z,1.00
2019-03-24T17:44:03.072Z,1.00
2019-03-24T17:46:29.954Z,1.00
2019-03-24T17:49:00.707Z,1.00
2019-03-24T17:51:30.145Z,1.00
2019-03-24T17:53:59.232Z,1.00
2019-03-24T17:56:29.087Z,1.00
2019-03-24T17:58:58.773Z,1.00
2019-03-24T18:01:28.278Z,1.00
2019-03-24T18:03:57.738Z,1.00
2019-03-24T18:06:27.184Z,1.00
2019-03-24T18:08:56.676Z,1.00
2019-03-24T18:11:25.979Z,1.00
2019-03-24T18:13:55.060Z,1.00
2019-03-24T18:16:24.729Z,1.00
2019-03-24T18:18:53.909Z,1.00
2019-03-24T18:21:23.083Z,1.00
2019-03-24T18:23:52.729Z,1.00
2019-03-24T18:26:21.586Z,1.00
2019-03-24T18:28:50.231Z,1.00
2019-03-24T18:31:18.982Z,1.00
2019-03-24T18:33:48.653Z,1.00
2019-03-24T18:36:18.643Z,1.00
2019-03-24T18:38:49.111Z,1.00
2019-03-24T18:41:18.324Z,1.00
2019-03-24T18:43:48.513Z,1.00
2019-03-24T18:46:18.689Z,1.00
2019-03-24T18:48:50.714Z,1.00
2019-03-24T18:51:19.877Z,1.00
2019-03-24T18:53:48.908Z,1.00
2019-03-24T18:56:19.607Z,1.00
2019-03-24T18:58:48.965Z,1.00
2019-03-24T19:01:18.472Z,1.00
2019-03-24T19:03:47.522Z,1.00
2019-03-24T19:06:17.139Z,1.00
2019-03-24T19:08:46.529Z,1.00
2019-03-24T19:11:15.794Z,1.00
2019-03-24T19:13:45.499Z,1.00
2019-03-24T19:16:14.179Z,1.00
2019-03-24T19:18:43.826Z,1.00
2019-03-24T19:21:13.242Z,1.00
2019-03-24T19:23:42.712Z,1.00
2019-03-24T19:26:11.961Z,1.00
2019-03-24T19:28:41.010Z,1.00
2019-03-24T19:31:10.058Z,1.00
2019-03-24T19:33:39.611Z,1.00
2019-03-24T19:36:09.012Z,1.00
2019-03-24T19:38:38.897Z,1.00
2019-03-24T19:41:08.998Z,1.00
2019-03-24T19:43:39.812Z,1.00
2019-03-24T19:46:09.176Z,1.00
2019-03-24T19:48:38.366Z,1.00
2019-03-24T19:51:07.842Z,1.00
2019-03-24T19:53:38.126Z,1.00
2019-03-24T19:56:07.349Z,1.00
2019-03-24T19:58:36.078Z,1.00
2019-03-24T20:01:04.957Z,1.00
2019-03-24T20:03:34.277Z,1.00
2019-03-24T20:06:03.755Z,1.00
2019-03-24T20:08:33.259Z,1.00
2019-03-24T20:11:02.549Z,1.00
2019-03-24T20:13:32.193Z,1.00
2019-03-24T20:16:01.308Z,1.00
2019-03-24T20:18:30.444Z,1.00
2019-03-24T20:20:59.512Z,1.00
2019-03-24T20:23:29.580Z,1.00
2019-03-24T20:25:58.763Z,1.00
2019-03-24T20:28:27.918Z,1.00
2019-03-24T20:30:57.173Z,1.00
2019-03-24T20:33:26.414Z,1.00
2019-03-24T20:35:56.476Z,1.00
2019-03-24T20:38:26.054Z,1.00
2019-03-24T20:40:55.596Z,1.00
2019-03-24T20:43:24.235Z,1.00
2019-03-24T20:45:52.869Z,1.00
2019-03-24T20:48:21.855Z,1.00
2019-03-24T20:50:51.156Z,1.00
2019-03-24T20:53:20.208Z,1.00
2019-03-24T20:55:50.601Z,1.00
2019-03-24T20:58:19.792Z,1.00
2019-03-24T21:00:49.337Z,1.00
2019-03-24T21:03:18.619Z,1.00
2019-03-24T21:05:47.573Z,1.00
2019-03-24T21:08:17.633Z,1.00
2019-03-24T21:10:47.021Z,1.00
2019-03-24T21:13:16.361Z,1.00
2019-03-24T21:15:45.620Z,1.00
2019-03-24T21:18:14.930Z,1.00
2019-03-24T21:20:43.571Z,1.00
2019-03-24T21:23:12.287Z,1.00
2019-03-24T21:25:40.852Z,1.00
2019-03-24T21:28:09.837Z,1.00
2019-03-24T21:30:40.179Z,1.00
2019-03-24T21:33:09.266Z,1.00
2019-03-24T21:35:38.340Z,1.00
2019-03-24T21:38:08.341Z,1.00
2019-03-24T21:40:37.570Z,1.00
2019-03-24T21:43:06.874Z,1.00
2019-03-24T21:45:36.299Z,1.00
2019-03-24T21:48:06.021Z,1.00
2019-03-24T21:50:35.804Z,1.00
2019-03-24T21:53:06.103Z,1.00
2019-03-24T21:55:35.243Z,1.00
2019-03-24T21:58:04.409Z,1.00
2019-03-24T22:00:35.045Z,1.00
2019-03-24T22:03:04.885Z,1.00
2019-03-24T22:05:33.622Z,1.00
2019-03-24T22:08:02.251Z,1.00
2019-03-24T22:10:31.017Z,1.00
2019-03-24T22:13:01.103Z,1.00
2019-03-24T22:15:30.540Z,1.00
2019-03-24T22:17:59.845Z,1.00
2019-03-24T22:20:29.413Z,1.00
2019-03-24T22:22:58.511Z,1.00
2019-03-24T22:25:27.864Z,1.00
2019-03-24T22:27:57.085Z,1.00
2019-03-24T22:30:29.213Z,1.00
2019-03-24T22:32:59.118Z,1.00
2019-03-24T22:35:27.743Z,1.00
2019-03-24T22:37:56.297Z,1.00
2019-03-24T22:40:24.968Z,1.00
2019-03-24T22:42:53.608Z,1.00
2019-03-24T22:45:22.816Z,1.00
2019-03-24T22:47:52.056Z,1.00
2019-03-24T22:50:20.818Z,1.00
2019-03-24T22:52:49.473Z,1.00
2019-03-24T22:55:19.205Z,1.00
2019-03-24T22:57:47.976Z,1.00
2019-03-24T23:00:19.007Z,1.00
2019-03-24T23:02:48.353Z,1.00
2019-03-24T23:05:17.835Z,1.00
2019-03-24T23:07:46.482Z,1.00
2019-03-24T23:10:15.110Z,1.00
2019-03-24T23:12:43.947Z,1.00
2019-03-24T23:15:13.428Z,1.00
2019-03-24T23:17:43.596Z,1.00
2019-03-24T23:20:12.827Z,1.00
2019-03-24T23:22:42.827Z,1.00
2019-03-24T23:25:12.841Z,1.00
2019-03-24T23:27:42.218Z,1.00
2019-03-24T23:30:11.680Z,1.00
2019-03-24T23:32:40.915Z,1.00
2019-03-24T23:35:09.765Z,1.00
2019-03-24T23:37:38.534Z,1.00
2019-03-24T23:40:07.800Z,1.00
2019-03-24T23:42:36.650Z,1.00
2019-03-24T23:45:09.124Z,1.00
2019-03-24T23:47:37.790Z,1.00
2019-03-24T23:50:06.740Z,1.00
2019-03-24T23:52:35.398Z,1.00
2019-03-24T23:55:04.232Z,1.00
2019-03-24T23:57:32.876Z,1.00
